Cedar Bluffs, NE

11:28 AM CDT on June 28, 2017 (GMT -0500)
MAR147 | | Change Station

Elev 1246 ft 41.35 °N, 96.58 °W | Updated 42 days ago

Clear
Clear
61.0 °F
Feels Like 61.0 °F
N
9.0
Wind Variable Wind from South
Gusts 16.0 mph

Today
High -- | Low -- °F
--% Chance of Precip.
Yesterday
High -- | Low -- °F
Precip. -- in
Pressure 29.69 in
Visibility 10.0 miles
Clouds Clear
Dew Point 61 °F
Humidity 100%
Rainfall 0.33 in
Snow Depth Not available.
5:55 AM 9:03 PM
Waxing Crescent, 26% visible
METAR KFET 281615Z AUTO 21015G19KT 10SM CLR 28/20 A2969 RMK AO2 LTG DSNT NE T02750198
Pressure 29.69 in
Visibility 10.0 miles
Clouds Clear
Dew Point 61 °F
Humidity 100%
Rainfall 0.33 in
Snow Depth Not available.
5:55 AM 9:03 PM
Waxing Crescent, 26% visible
METAR KFET 281615Z AUTO 21015G19KT 10SM CLR 28/20 A2969 RMK AO2 LTG DSNT NE T02750198

Get Severe Weather Alerts

Thanks for signing up!

Be on the lookout for a verification email in your inbox.

You'll start receiving the daily forecast at 6 AM.

×

10-Day Weather Forecast

Almanac

Astronomy

Jun. 28, 2017 Rise Set
Actual Time
Civil Twilight
Nautical Twilight
Astronomical Twilight
Moon
Length of Visible Light
Length of Day
Tomorrow will be .
, % of the Moon is Illuminated

Today's Extremes

State Highs State Lows

Community

WunderPhotos

Category 6

Welcome to Category 6. This is the collective home for Weather Underground's featured writeups by Dr. Jeff Masters (right), Bob Henson (left), Chris Burt, and other regular contributors.

Nearby

Air Quality

  Air Quality AQ Index Pollutant
Not available.

Snow Depth

Station Depth Elevation

Earthquake Activity

City Distance Mag. Time & Date
Minimum magnitude displayed is 2.5.

Coastal Water Temperatures

Place Temperature

Stations

Nearby Weather Stations

Station Location Temp. Windchill Dew Point Humidity Wind Precip. Elev Updated Type
                   

Watches & Warnings

There are currently no watches in effect.